LFSN/ENC METAR and TAF weather

Enter ICAO airport designator
Station Type Date Time Source
LFSN METAR 2022/05/24 12:30 UTC NOAA

LFSN 241230Z AUTO 25008KT 210V320 9999 FEW039/// SCT078/// ///TCU 18/09 Q1010


Station Type Date Time Source
LFSN Decoded METAR 2022/05/24 12:30 UTC NOAA

Nancy / Essey, France (LFSN) 48-41N 006-13E 217M
May 24, 2022 - 08:30 AM EDT / 2022.05.24 1230 UTC
Wind: from the WSW (250 degrees) at 9 MPH (8 KT) (direction variable):0
Visibility: greater than 7 mile(s):0
Sky conditions: partly cloudy
Weather: Towering cumulus clouds observed
Temperature: 64 F (18 C)
Dew Point: 48 F (9 C)
Relative Humidity: 55%
Pressure (altimeter): 29.83 in. Hg (1010 hPa)
ob: LFSN 241230Z AUTO 25008KT 210V320 9999 FEW039/// SCT078/// ///TCU 18/09 Q1010
cycle: 12

Station Type Date Time Source
LFSN TAF 2012/03/14 16:58 UTC NOAA

TAF LFSN 141600Z 1416/1512 CNL

Example: see airport list